Time;durP1;ratioP1;P1;durP2;ratioP2;P2;SDS_P1;SDS_P2;PMS_P1;PMS_P2;Temp;Humidity;BMP_temperature;BMP_pressure;BME280_temperature;BME280_humidity;BME280_pressure;Samples;Min_cycle;Max_cycle;Signal;HPM_P1;HPM_P2
2022/06/14 00:01:30;;;;;;;12.05;7.80;;;;;;;18.46;83.62;99856.75;5108953;28;20032;-33
2022/06/14 00:03:57;;;;;;;11.57;8.07;;;;;;;18.25;83.21;99841.72;5108780;28;20043;-30
2022/06/14 00:06:25;;;;;;;11.00;8.05;;;;;;;18.18;84.79;99844.69;5108842;28;20080;-28
2022/06/14 00:08:51;;;;;;;10.40;7.57;;;;;;;18.43;83.39;99851.91;5073700;28;20048;-31
2022/06/14 00:11:21;;;;;;;9.95;7.88;;;;;;;18.39;84.15;99850.84;5089563;28;20030;-31
2022/06/14 00:13:47;;;;;;;16.33;8.18;;;;;;;18.40;84.76;99847.06;5090322;28;20035;-29
2022/06/14 00:16:14;;;;;;;12.57;7.93;;;;;;;18.39;83.74;99845.44;5090222;28;20144;-29
2022/06/14 00:18:40;;;;;;;11.75;8.55;;;;;;;18.21;83.99;99838.75;5090237;28;20560;-37
2022/06/14 00:21:07;;;;;;;14.45;8.77;;;;;;;18.09;86.22;99845.56;5089723;28;20603;-29
2022/06/14 00:23:32;;;;;;;12.25;8.13;;;;;;;18.37;85.66;99844.09;5089838;28;20027;-32
2022/06/14 00:25:59;;;;;;;12.40;7.78;;;;;;;18.30;85.36;99830.91;5108244;28;20444;-29
2022/06/14 00:28:27;;;;;;;11.27;8.57;;;;;;;18.19;85.78;99823.94;5090071;28;20047;-31
2022/06/14 00:31:03;;;;;;;13.98;8.35;;;;;;;18.30;84.42;99824.69;5089867;28;20052;-30
2022/06/14 00:33:29;;;;;;;14.07;8.65;;;;;;;18.19;84.43;99834.72;5089777;28;20518;-30
2022/06/14 00:36:04;;;;;;;10.82;7.80;;;;;;;18.08;85.07;99844.72;5107908;28;20036;-31
2022/06/14 00:38:30;;;;;;;12.30;9.07;;;;;;;17.84;86.15;99849.94;5108265;28;20031;-30
2022/06/14 00:40:59;;;;;;;11.70;8.55;;;;;;;17.59;88.22;99843.44;5107872;28;20055;-34
2022/06/14 00:43:26;;;;;;;13.65;9.20;;;;;;;17.54;89.16;99840.75;5089222;28;20043;-32
2022/06/14 00:45:52;;;;;;;14.87;9.63;;;;;;;17.56;89.59;99852.06;5089391;28;20377;-32
2022/06/14 00:48:31;;;;;;;13.15;9.38;;;;;;;17.30;92.18;99843.16;5089078;28;20081;-34
2022/06/14 00:51:16;;;;;;;14.55;9.73;;;;;;;17.44;92.34;99846.13;5107449;28;20059;-30
2022/06/14 00:53:49;;;;;;;14.48;9.77;;;;;;;17.45;92.35;99845.06;5089276;28;20441;-29
2022/06/14 00:56:48;;;;;;;11.73;9.93;;;;;;;17.53;91.88;99838.31;5107582;28;20796;-30
2022/06/14 00:59:23;;;;;;;13.38;9.57;;;;;;;17.64;91.14;99835.34;5088803;28;20055;-32
2022/06/14 01:01:56;;;;;;;14.65;10.38;;;;;;;17.70;92.20;99838.03;5088871;28;20811;-29
2022/06/14 01:04:25;;;;;;;13.63;9.55;;;;;;;17.99;90.10;99841.00;5089214;28;20500;-29
2022/06/14 01:07:05;;;;;;;12.13;9.18;;;;;;;18.12;89.62;99840.41;5088967;28;20031;-28
2022/06/14 01:09:37;;;;;;;12.02;9.82;;;;;;;18.21;89.45;99837.97;5088806;28;20522;-29
2022/06/14 01:12:09;;;;;;;12.68;9.88;;;;;;;18.28;88.76;99835.75;5107473;28;20108;-30
2022/06/14 01:14:38;;;;;;;13.10;9.90;;;;;;;18.23;88.71;99844.69;5107500;28;20522;-29
2022/06/14 01:17:04;;;;;;;13.80;10.15;;;;;;;18.21;89.32;99840.66;5088370;28;20046;-32
2022/06/14 01:19:29;;;;;;;12.13;9.52;;;;;;;18.20;89.10;99847.13;5107006;28;20031;-32
2022/06/14 01:22:17;;;;;;;13.23;10.13;;;;;;;18.30;88.64;99847.09;5107065;28;20039;-32
2022/06/14 01:24:44;;;;;;;12.30;9.77;;;;;;;18.25;88.04;99839.03;5091025;28;20037;-31
2022/06/14 01:27:14;;;;;;;14.82;10.23;;;;;;;18.18;88.34;99841.19;5106749;28;20035;-31
2022/06/14 01:29:45;;;;;;;14.90;10.85;;;;;;;18.50;87.73;99848.91;5088465;28;20027;-31
2022/06/14 01:32:14;;;;;;;13.93;10.38;;;;;;;18.40;88.11;99841.66;5106745;28;20034;-29
2022/06/14 01:34:47;;;;;;;12.20;10.55;;;;;;;18.36;88.28;99839.78;5088108;28;20521;-37
2022/06/14 01:37:13;;;;;;;12.32;9.55;;;;;;;17.85;90.15;99819.97;5088193;28;20027;-30
2022/06/14 01:39:39;;;;;;;13.15;10.35;;;;;;;17.53;91.19;99805.97;5107007;28;20027;-38
2022/06/14 01:42:22;;;;;;;12.65;10.93;;;;;;;17.93;90.30;99818.59;5106820;28;20031;-30
2022/06/14 01:45:10;;;;;;;15.10;10.75;;;;;;;18.03;89.89;99834.75;5106788;28;20035;-30
2022/06/14 01:47:59;;;;;;;14.95;10.00;;;;;;;18.05;89.03;99835.28;5088511;28;20035;-31
2022/06/14 01:53:29;;;;;;;11.77;9.77;;;;;;;17.87;89.99;99838.56;5106739;28;20514;-31
2022/06/14 01:56:18;;;;;;;13.35;10.23;;;;;;;17.60;91.79;99828.06;5106678;28;20059;-31
2022/06/14 01:59:02;;;;;;;13.13;10.10;;;;;;;17.54;92.35;99837.25;5088192;28;20032;-29
2022/06/14 02:01:35;;;;;;;13.77;10.82;;;;;;;17.33;93.57;99825.66;5106474;28;20249;-29
2022/06/14 02:04:39;;;;;;;13.13;10.70;;;;;;;17.70;91.84;99841.53;5087786;28;20197;-29
2022/06/14 02:07:24;;;;;;;12.90;10.55;;;;;;;17.80;91.45;99848.81;5084782;28;20045;-33
2022/06/14 02:10:17;;;;;;;13.18;9.98;;;;;;;17.94;90.80;99843.69;5106202;28;20031;-36
2022/06/14 02:12:58;;;;;;;15.65;10.00;;;;;;;17.86;90.23;99845.88;5088255;28;20028;-31
2022/06/14 02:16:11;;;;;;;12.43;9.75;;;;;;;17.94;89.11;99836.41;5106230;28;20046;-34
2022/06/14 02:19:13;;;;;;;12.80;10.10;;;;;;;17.78;89.89;99853.69;5071792;28;20046;-30
2022/06/14 02:21:43;;;;;;;15.88;10.90;;;;;;;17.65;90.31;99855.84;5088150;28;20122;-31
2022/06/14 02:24:09;;;;;;;14.93;11.18;;;;;;;17.59;90.82;99859.63;5106537;28;20039;-30
2022/06/14 02:27:01;;;;;;;17.40;11.57;;;;;;;17.51;90.79;99867.44;5106299;28;20054;-36
2022/06/14 02:29:45;;;;;;;15.30;11.25;;;;;;;17.52;90.35;99845.59;5074256;28;20694;-28
2022/06/14 02:32:19;;;;;;;13.50;11.25;;;;;;;17.61;90.77;99853.94;5087943;28;20028;-28
2022/06/14 02:34:51;;;;;;;12.90;10.82;;;;;;;17.69;90.48;99861.50;5087943;28;20031;-30
2022/06/14 02:37:37;;;;;;;15.40;10.88;;;;;;;17.57;90.43;99842.06;5087390;28;20047;-29
2022/06/14 02:40:18;;;;;;;13.93;10.75;;;;;;;17.48;90.73;99852.59;5105398;28;20043;-31
2022/06/14 02:42:56;;;;;;;15.38;10.90;;;;;;;17.61;90.48;99870.94;5087614;28;20062;-31
2022/06/14 02:45:28;;;;;;;16.23;11.50;;;;;;;17.48;90.27;99852.59;5105697;28;20031;-29
2022/06/14 02:48:05;;;;;;;14.48;11.45;;;;;;;17.48;91.08;99874.97;5105965;28;20066;-32
2022/06/14 02:50:50;;;;;;;14.10;11.57;;;;;;;17.58;90.63;99871.47;5087918;28;20055;-38
2022/06/14 02:53:22;;;;;;;13.18;10.98;;;;;;;17.61;90.53;99846.69;5087478;28;20414;-32
2022/06/14 02:55:58;;;;;;;15.48;12.13;;;;;;;17.77;90.22;99873.63;5087457;28;20098;-31
2022/06/14 02:58:29;;;;;;;19.27;13.05;;;;;;;17.60;90.47;99850.44;5087820;28;20546;-28
2022/06/14 03:01:11;;;;;;;17.08;13.00;;;;;;;17.72;91.26;99871.75;5087616;28;20116;-34
2022/06/14 03:04:00;;;;;;;16.73;13.32;;;;;;;17.52;93.15;99875.25;5087655;28;20156;-31
2022/06/14 03:06:58;;;;;;;18.42;14.68;;;;;;;17.52;93.89;99875.25;5087334;28;20036;-31
2022/06/14 03:09:32;;;;;;;20.10;15.20;;;;;;;17.53;94.37;99879.59;5100474;28;20047;-30
2022/06/14 03:12:19;;;;;;;19.77;15.70;;;;;;;17.31;95.09;99841.28;5087549;28;20027;-28
2022/06/14 03:15:15;;;;;;;19.77;16.17;;;;;;;17.62;94.78;99872.56;5105844;28;20032;-34
2022/06/14 03:18:07;;;;;;;22.65;17.02;;;;;;;17.55;96.04;99877.44;5105832;28;20107;-28
2022/06/14 03:20:48;;;;;;;18.10;15.70;;;;;;;17.58;96.63;99874.19;5088780;28;20028;-29
2022/06/14 03:23:16;;;;;;;21.25;17.70;;;;;;;17.80;95.88;99875.78;5109614;28;20066;-29
2022/06/14 03:25:51;;;;;;;20.35;17.23;;;;;;;17.93;95.57;99875.25;5109376;28;20372;-32
2022/06/14 03:28:23;;;;;;;19.17;16.27;;;;;;;18.15;94.08;99876.84;5090934;28;20051;-32
2022/06/14 03:31:10;;;;;;;21.48;17.10;;;;;;;18.14;94.47;99869.81;5090939;28;20080;-30
2022/06/14 03:34:06;;;;;;;21.90;16.98;;;;;;;18.11;94.18;99875.78;5090945;28;20112;-36
2022/06/14 03:36:32;;;;;;;22.33;18.17;;;;;;;17.97;94.74;99860.13;5109333;28;20571;-33
2022/06/14 03:39:10;;;;;;;21.05;16.67;;;;;;;18.15;93.83;99882.25;5109189;28;20078;-29
2022/06/14 03:41:40;;;;;;;19.25;16.70;;;;;;;18.09;94.42;99861.75;5090541;28;20023;-31
2022/06/14 03:44:06;;;;;;;21.33;17.88;;;;;;;18.30;93.11;99884.88;5090765;28;20031;-34
2022/06/14 03:46:39;;;;;;;20.77;16.83;;;;;;;18.20;94.04;99879.50;5109333;28;20044;-29
2022/06/14 03:49:25;;;;;;;21.85;17.33;;;;;;;18.27;94.17;99880.84;5090592;28;20632;-33
2022/06/14 03:52:00;;;;;;;21.25;17.73;;;;;;;18.37;93.82;99874.63;5090426;28;20024;-30
2022/06/14 03:54:37;;;;;;;23.33;17.92;;;;;;;18.61;92.89;99876.69;5090486;28;20150;-29
2022/06/14 03:57:27;;;;;;;19.40;16.80;;;;;;;18.76;92.80;99876.63;5090511;28;20027;-33
2022/06/14 04:00:02;;;;;;;21.55;17.70;;;;;;;18.68;92.43;99880.69;5090234;28;20445;-33
2022/06/14 04:02:54;;;;;;;22.52;17.65;;;;;;;18.79;92.34;99876.06;5108462;28;20088;-29
2022/06/14 04:05:40;;;;;;;21.80;17.90;;;;;;;18.77;92.18;99878.22;5108736;28;20032;-30
2022/06/14 04:08:24;;;;;;;19.08;16.90;;;;;;;18.72;92.12;99864.75;5088843;28;20073;-33
2022/06/14 04:11:32;;;;;;;26.15;17.58;;;;;;;18.89;91.44;99874.44;5108543;28;20027;-29
2022/06/14 04:14:34;;;;;;;19.33;16.33;;;;;;;18.94;90.73;99882.50;5108534;28;20031;-34
2022/06/14 04:17:11;;;;;;;20.25;15.80;;;;;;;18.91;91.88;99877.66;5108402;28;20039;-34
2022/06/14 04:20:09;;;;;;;20.27;16.05;;;;;;;18.94;92.34;99885.19;5108672;28;20032;-29
2022/06/14 04:22:44;;;;;;;19.55;14.80;;;;;;;19.22;91.21;99895.28;5090110;28;20123;-32
2022/06/14 04:25:24;;;;;;;17.48;14.30;;;;;;;19.27;90.32;99881.75;5108219;28;20026;-29
2022/06/14 04:28:17;;;;;;;17.80;14.25;;;;;;;19.39;89.49;99888.69;5090160;28;20110;-32
2022/06/14 04:30:45;;;;;;;16.77;13.93;;;;;;;19.39;88.40;99888.69;5108425;28;20252;-34
2022/06/14 04:33:15;;;;;;;17.60;13.85;;;;;;;19.27;88.96;99897.16;5108561;28;20027;-32
2022/06/14 04:35:50;;;;;;;16.95;14.05;;;;;;;19.38;88.32;99887.09;5107944;28;20028;-30
2022/06/14 04:38:24;;;;;;;15.88;14.05;;;;;;;19.61;87.81;99890.94;5108527;28;20030;-32
2022/06/14 04:41:00;;;;;;;17.95;14.57;;;;;;;19.67;86.72;99890.63;5108352;28;20047;-31
2022/06/14 04:43:53;;;;;;;16.52;14.18;;;;;;;19.81;86.25;99903.53;5089558;28;20602;-31
2022/06/14 04:46:24;;;;;;;18.95;13.52;;;;;;;19.61;85.92;99899.88;5107928;28;20046;-32
2022/06/14 04:49:11;;;;;;;21.27;15.10;;;;;;;19.74;87.14;99906.59;5089452;28;20037;-29
2022/06/14 04:51:47;;;;;;;16.40;14.50;;;;;;;19.77;87.60;99897.06;5107943;28;20043;-29
2022/06/14 04:54:21;;;;;;;15.93;13.95;;;;;;;19.93;85.76;99909.38;5089256;28;20031;-30
2022/06/14 04:57:17;;;;;;;21.23;14.98;;;;;;;19.86;85.65;99898.91;5089177;28;20031;-29
2022/06/14 04:59:55;;;;;;;14.52;13.02;;;;;;;19.94;85.56;99904.75;5061684;28;20857;-34
2022/06/14 05:02:37;;;;;;;17.90;15.10;;;;;;;20.09;86.54;99906.53;5107329;28;20108;-29
2022/06/14 05:05:15;;;;;;;15.30;13.20;;;;;;;20.22;85.25;99903.13;5107069;28;20067;-30
2022/06/14 05:07:48;;;;;;;17.35;14.05;;;;;;;20.37;85.01;99903.00;5089097;28;20070;-31
2022/06/14 05:10:18;;;;;;;15.32;13.60;;;;;;;20.52;85.11;99898.50;5107572;28;20023;-32
2022/06/14 05:12:56;;;;;;;13.63;12.15;;;;;;;20.79;83.40;99912.25;5107370;28;20031;-31
2022/06/14 05:15:35;;;;;;;15.18;13.05;;;;;;;20.61;83.93;99891.34;5088564;28;20024;-29
2022/06/14 05:18:10;;;;;;;17.20;14.00;;;;;;;20.85;84.08;99910.28;5107500;28;20043;-29
2022/06/14 05:20:43;;;;;;;16.77;12.90;;;;;;;20.87;82.47;99895.34;5088905;28;20031;-30
2022/06/14 05:23:21;;;;;;;16.65;13.57;;;;;;;21.00;82.00;99915.53;5072323;28;20046;-36
2022/06/14 05:26:09;;;;;;;14.45;11.88;;;;;;;21.12;79.26;99920.50;5088642;28;20024;-32
2022/06/14 05:28:44;;;;;;;16.70;12.18;;;;;;;21.11;79.48;99918.91;5107450;28;20043;-34
2022/06/14 05:31:12;;;;;;;13.20;11.32;;;;;;;21.19;79.32;99926.38;5089163;28;20541;-31
2022/06/14 05:33:57;;;;;;;15.10;12.05;;;;;;;21.39;79.59;99924.44;5106952;28;20309;-29
2022/06/14 05:36:38;;;;;;;12.55;11.25;;;;;;;21.74;78.09;99927.72;5088599;28;20027;-29
2022/06/14 05:39:17;;;;;;;15.18;11.02;;;;;;;21.66;77.35;99896.66;5106800;28;20557;-36
2022/06/14 05:41:52;;;;;;;15.70;13.48;;;;;;;21.78;78.23;99936.88;5088608;28;20062;-29
2022/06/14 05:44:31;;;;;;;13.65;11.82;;;;;;;21.72;76.34;99924.50;5106142;28;20027;-30
2022/06/14 05:47:03;;;;;;;15.73;11.77;;;;;;;22.02;76.80;99934.03;5088768;28;20027;-30
2022/06/14 05:49:35;;;;;;;13.52;11.85;;;;;;;22.10;76.46;99940.72;5088407;28;20124;-29
2022/06/14 05:52:09;;;;;;;14.43;10.85;;;;;;;22.29;75.56;99910.78;5106983;28;20056;-30
2022/06/14 05:54:41;;;;;;;13.43;10.40;;;;;;;22.41;74.13;99925.50;5107016;28;20028;-31
2022/06/14 05:57:42;;;;;;;15.13;12.60;;;;;;;22.48;76.56;99935.16;5106805;28;20031;-31
2022/06/14 06:00:16;;;;;;;17.02;12.38;;;;;;;22.75;75.14;99940.56;5083363;28;20040;-28
2022/06/14 06:03:00;;;;;;;17.77;14.88;;;;;;;22.78;72.78;99939.97;5084562;28;20436;-34
2022/06/14 06:05:42;;;;;;;13.55;11.95;;;;;;;22.84;75.30;99944.22;5106668;28;20051;-30
2022/06/14 06:08:21;;;;;;;15.60;12.50;;;;;;;23.04;73.03;99934.81;5088491;28;20487;-31
2022/06/14 06:10:52;;;;;;;17.42;12.98;;;;;;;23.03;72.94;99919.63;5088408;28;20114;-30
2022/06/14 06:13:26;;;;;;;14.05;12.63;;;;;;;23.22;72.58;99943.94;5088143;28;20031;-30
2022/06/14 06:16:05;;;;;;;17.98;14.48;;;;;;;23.32;73.20;99934.75;5088347;28;20557;-29
2022/06/14 06:18:58;;;;;;;13.70;12.15;;;;;;;23.46;71.29;99945.59;5088400;28;20034;-32
2022/06/14 06:21:34;;;;;;;13.85;11.50;;;;;;;23.45;70.45;99943.97;5106112;28;20046;-30
2022/06/14 06:24:21;;;;;;;14.40;12.07;;;;;;;23.64;71.38;99936.47;5087893;28;20035;-32
2022/06/14 06:26:52;;;;;;;17.17;14.43;;;;;;;23.78;71.47;99930.97;5106207;28;20089;-35
2022/06/14 06:29:26;;;;;;;16.58;11.77;;;;;;;24.08;69.36;99944.13;5087931;28;20024;-33
2022/06/14 06:31:51;;;;;;;14.75;11.00;;;;;;;24.06;70.01;99944.44;5087809;28;20122;-29
2022/06/14 06:34:18;;;;;;;13.88;11.38;;;;;;;24.05;70.31;99937.38;5087900;28;20019;-29
2022/06/14 06:36:52;;;;;;;13.10;11.75;;;;;;;24.39;69.92;99942.19;5105904;28;20031;-30
2022/06/14 06:39:44;;;;;;;14.45;11.45;;;;;;;24.25;70.53;99939.56;5106197;28;20031;-29
2022/06/14 06:42:23;;;;;;;15.88;11.60;;;;;;;24.45;69.15;99949.09;5106226;28;20087;-35
2022/06/14 06:44:59;;;;;;;18.83;11.00;;;;;;;24.67;68.55;99945.53;5106341;28;20214;-32
2022/06/14 06:47:39;;;;;;;11.52;10.32;;;;;;;24.68;65.92;99940.88;5087809;28;20038;-31
2022/06/14 06:50:05;;;;;;;12.43;11.10;;;;;;;24.78;67.70;99947.97;5087955;28;20031;-31
2022/06/14 06:53:04;;;;;;;85.43;19.85;;;;;;;24.90;66.09;99950.06;5087790;28;20040;-31
2022/06/14 06:55:50;;;;;;;13.60;11.35;;;;;;;25.02;65.32;99942.06;5109038;28;20032;-34
2022/06/14 06:58:36;;;;;;;14.43;10.30;;;;;;;25.20;64.63;99943.69;5091730;28;20096;-32
2022/06/14 07:01:07;;;;;;;12.07;10.25;;;;;;;25.14;64.67;99942.25;5091284;28;20130;-31
2022/06/14 07:03:54;;;;;;;12.48;10.75;;;;;;;25.40;63.26;99950.50;5091073;28;20047;-31
2022/06/14 07:06:33;;;;;;;11.88;10.40;;;;;;;25.57;63.78;99952.41;5110119;28;20050;-34
2022/06/14 07:09:04;;;;;;;11.38;9.95;;;;;;;25.53;63.38;99942.47;5091771;28;20644;-29
2022/06/14 07:11:38;;;;;;;14.30;10.15;;;;;;;25.36;63.43;99941.34;5109755;28;20119;-36
2022/06/14 07:14:23;;;;;;;13.55;9.75;;;;;;;25.73;61.00;99949.19;5109537;28;20027;-32
2022/06/14 07:17:15;;;;;;;11.25;9.35;;;;;;;25.59;62.95;99941.97;5091235;28;20249;-36
2022/06/14 07:19:48;;;;;;;12.35;10.27;;;;;;;25.94;61.72;99932.94;5109136;28;20104;-34
2022/06/14 07:22:25;;;;;;;12.10;10.30;;;;;;;26.20;62.06;99952.00;5091163;28;20084;-31
2022/06/14 07:25:02;;;;;;;13.02;10.20;;;;;;;26.46;61.26;99930.03;5091090;28;20035;-33
2022/06/14 07:27:39;;;;;;;12.02;10.25;;;;;;;26.72;61.51;99946.31;5109925;28;20042;-30
2022/06/14 07:30:26;;;;;;;10.93;9.30;;;;;;;26.83;59.89;99953.03;5091029;28;20024;-31
2022/06/14 07:32:55;;;;;;;14.77;9.38;;;;;;;26.75;59.85;99944.88;5090773;28;20027;-30
2022/06/14 07:35:31;;;;;;;10.65;9.55;;;;;;;26.55;60.51;99954.59;5090693;28;20027;-31
2022/06/14 07:38:33;;;;;;;11.57;9.25;;;;;;;26.94;59.81;99949.91;5090981;28;20038;-36
2022/06/14 07:41:25;;;;;;;10.48;9.30;;;;;;;26.89;58.37;99950.09;5109209;28;20395;-31
2022/06/14 07:43:58;;;;;;;95.93;14.77;;;;;;;26.65;59.83;99949.59;5104934;28;20040;-31
2022/06/14 07:46:59;;;;;;;11.40;9.93;;;;;;;26.72;56.12;99949.06;5109434;28;20107;-35
2022/06/14 07:49:54;;;;;;;13.43;8.88;;;;;;;26.80;59.89;99948.22;5094086;28;20178;-34
2022/06/14 07:52:42;;;;;;;9.93;8.88;;;;;;;27.15;57.90;99931.56;5108118;28;20131;-32
2022/06/14 07:55:19;;;;;;;10.57;8.80;;;;;;;27.49;57.12;99946.16;5108798;28;20054;-31
2022/06/14 07:57:47;;;;;;;9.70;8.52;;;;;;;27.45;55.62;99951.50;5090204;28;20031;-32
2022/06/14 08:03:08;;;;;;;9.98;8.52;;;;;;;27.61;57.43;99948.94;5108652;28;20070;-29
2022/06/14 08:05:39;;;;;;;11.68;8.90;;;;;;;27.72;56.88;99934.81;5089617;28;20028;-33
2022/06/14 08:08:08;;;;;;;11.63;8.32;;;;;;;27.81;55.10;99938.28;5090183;28;20288;-30
2022/06/14 08:10:44;;;;;;;15.82;8.95;;;;;;;27.74;55.50;99951.72;5089746;28;20089;-29
2022/06/14 08:13:16;;;;;;;11.63;8.63;;;;;;;27.69;56.68;99922.59;5108600;28;20114;-32
2022/06/14 08:15:53;;;;;;;11.13;8.60;;;;;;;28.02;54.49;99946.47;5090172;28;20575;-33
2022/06/14 08:18:40;;;;;;;13.18;8.30;;;;;;;27.96;54.05;99945.88;5108729;28;20108;-30
2022/06/14 08:21:23;;;;;;;9.88;8.32;;;;;;;28.30;54.89;99943.06;5108156;28;20028;-33
2022/06/14 08:24:13;;;;;;;11.90;8.13;;;;;;;28.81;53.74;99938.91;5089925;28;20122;-33
2022/06/14 08:26:47;;;;;;;10.20;8.27;;;;;;;28.80;52.80;99939.22;5107907;28;20031;-33
2022/06/14 08:29:32;;;;;;;11.05;7.90;;;;;;;28.38;51.56;99942.16;5089414;28;20063;-36
2022/06/14 08:32:12;;;;;;;10.73;7.60;;;;;;;28.77;49.66;99937.97;5108191;28;20055;-31
2022/06/14 08:35:12;;;;;;;8.73;7.28;;;;;;;28.84;49.60;99940.94;5108182;28;20036;-33
2022/06/14 08:37:47;;;;;;;9.77;8.13;;;;;;;28.35;50.16;99938.19;5089213;28;20031;-30
2022/06/14 08:40:34;;;;;;;9.45;8.20;;;;;;;28.43;50.44;99940.00;5089734;28;20422;-33
2022/06/14 08:43:11;;;;;;;12.55;8.70;;;;;;;28.45;50.94;99924.00;5107782;28;20084;-40
2022/06/14 08:45:44;;;;;;;9.38;7.40;;;;;;;28.94;48.56;99936.91;5089456;28;20446;-31
2022/06/14 08:48:48;;;;;;;83.00;13.32;;;;;;;28.87;46.70;99935.91;5089616;28;20539;-30
2022/06/14 08:51:34;;;;;;;9.23;7.40;;;;;;;29.09;49.35;99938.16;5055634;28;20047;-34
2022/06/14 08:54:36;;;;;;;8.70;7.22;;;;;;;29.43;49.32;99936.03;5107156;28;20036;-30
2022/06/14 08:57:20;;;;;;;9.40;7.60;;;;;;;29.34;47.42;99943.59;5107804;28;20114;-32
2022/06/14 09:00:07;;;;;;;9.02;7.90;;;;;;;29.39;48.63;99932.38;5089311;28;20503;-31
2022/06/14 09:02:51;;;;;;;10.13;7.95;;;;;;;29.50;47.01;99935.41;5107371;28;20082;-33
2022/06/14 09:05:23;;;;;;;10.82;7.53;;;;;;;29.44;49.65;99927.44;5089177;28;20778;-29
2022/06/14 09:08:06;;;;;;;10.38;7.25;;;;;;;29.57;48.85;99930.94;5089303;28;20513;-32
2022/06/14 09:11:10;;;;;;;11.50;7.72;;;;;;;29.32;49.10;99929.41;5107593;28;20089;-33
2022/06/14 09:13:35;;;;;;;11.38;7.35;;;;;;;29.56;47.67;99929.31;5107287;28;20110;-32
2022/06/14 09:16:06;;;;;;;9.63;6.72;;;;;;;29.90;46.73;99921.63;5089007;28;20122;-30
2022/06/14 09:18:55;;;;;;;8.80;6.90;;;;;;;29.86;47.51;99931.72;5106317;28;20479;-33
2022/06/14 09:21:42;;;;;;;8.13;7.20;;;;;;;29.92;46.83;99916.56;5088390;28;20054;-33
2022/06/14 09:24:14;;;;;;;9.32;7.28;;;;;;;29.92;46.03;99919.31;5107278;28;20016;-30
2022/06/14 09:26:53;;;;;;;9.30;6.60;;;;;;;30.22;46.81;99908.69;5107080;28;20040;-35
2022/06/14 09:29:39;;;;;;;8.95;7.13;;;;;;;30.60;46.32;99921.00;5088440;28;20019;-30
2022/06/14 09:32:29;;;;;;;10.52;6.70;;;;;;;30.75;46.32;99911.13;5107366;28;20027;-33
2022/06/14 09:35:07;;;;;;;11.38;7.30;;;;;;;30.94;45.48;99907.66;5088776;28;20062;-34
2022/06/14 09:38:00;;;;;;;8.25;6.63;;;;;;;30.51;45.01;99911.38;5107417;28;20035;-29
2022/06/14 09:40:47;;;;;;;7.22;6.07;;;;;;;30.31;43.78;99919.53;5089237;28;20032;-35
2022/06/14 09:43:34;;;;;;;35.88;8.50;;;;;;;30.19;45.02;99912.13;5106791;28;20032;-30
2022/06/14 09:46:02;;;;;;;8.65;6.55;;;;;;;30.33;42.59;99911.72;5107265;28;20083;-32
2022/06/14 09:48:46;;;;;;;9.73;6.68;;;;;;;30.78;42.33;99896.63;5088089;28;20035;-30
2022/06/14 09:51:28;;;;;;;8.52;6.13;;;;;;;30.88;42.47;99898.06;5106555;28;20034;-31
2022/06/14 09:54:24;;;;;;;7.50;6.47;;;;;;;30.86;43.27;99888.56;5088316;28;20028;-30
2022/06/14 09:57:13;;;;;;;8.35;6.55;;;;;;;31.14;44.98;99880.91;5088015;28;20555;-33
2022/06/14 09:59:49;;;;;;;7.30;6.28;;;;;;;31.40;41.96;99884.94;5088002;28;20050;-29
2022/06/14 10:02:41;;;;;;;8.15;6.38;;;;;;;31.30;42.05;99880.81;5088125;28;20843;-35
2022/06/14 10:05:25;;;;;;;8.73;5.82;;;;;;;31.43;38.85;99884.25;5087473;28;20797;-30
2022/06/14 10:08:09;;;;;;;7.93;6.13;;;;;;;31.48;39.96;99880.41;5088094;28;20031;-31
2022/06/14 10:10:53;;;;;;;8.20;6.10;;;;;;;31.81;36.59;99883.41;5107241;28;20028;-33
2022/06/14 10:13:40;;;;;;;7.85;5.60;;;;;;;31.96;39.12;99864.34;5106056;28;20035;-30
2022/06/14 10:16:28;;;;;;;8.50;6.00;;;;;;;31.59;38.25;99849.13;5107004;28;20055;-35
2022/06/14 10:19:14;;;;;;;7.93;6.38;;;;;;;31.36;38.55;99862.03;5106778;28;20172;-34
2022/06/14 10:21:53;;;;;;;10.50;6.07;;;;;;;31.66;36.62;99859.47;5087785;28;20183;-30
2022/06/14 10:24:44;;;;;;;8.13;5.78;;;;;;;31.76;39.69;99852.56;5088241;28;20063;-30
2022/06/14 10:30:43;;;;;;;9.05;5.70;;;;;;;31.91;37.88;99842.56;5109425;28;20087;-33
2022/06/14 10:33:33;;;;;;;8.23;6.82;;;;;;;31.82;39.96;99842.81;5110287;28;20023;-29
2022/06/14 10:36:07;;;;;;;7.93;6.30;;;;;;;32.17;39.83;99845.38;5110468;28;20070;-31
2022/06/14 10:38:51;;;;;;;8.90;6.65;;;;;;;31.93;37.11;99849.31;5092046;28;20047;-30
2022/06/14 10:41:42;;;;;;;7.40;6.20;;;;;;;31.90;36.57;99825.25;5110113;28;20045;-29
2022/06/14 10:44:30;;;;;;;7.70;6.68;;;;;;;32.19;38.89;99831.22;5091771;28;20410;-30
2022/06/14 10:47:04;;;;;;;8.23;6.18;;;;;;;32.33;36.82;99836.16;5110500;28;20031;-31
2022/06/14 10:49:54;;;;;;;8.57;6.15;;;;;;;32.00;36.24;99830.16;5091852;28;20119;-32
2022/06/14 10:52:38;;;;;;;8.73;6.07;;;;;;;31.99;34.57;99839.59;5109983;28;20485;-33
2022/06/14 10:55:31;;;;;;;32.47;10.55;;;;;;;31.86;35.20;99820.84;5109295;28;20028;-32
2022/06/14 10:58:34;;;;;;;8.32;5.78;;;;;;;32.59;33.12;99832.59;5110232;28;20042;-32
2022/06/14 11:01:19;;;;;;;9.60;5.55;;;;;;;33.46;36.38;99840.75;5109663;28;20027;-30
2022/06/14 11:04:19;;;;;;;8.27;5.93;;;;;;;34.02;32.89;99839.72;5109695;28;20060;-33
2022/06/14 11:07:01;;;;;;;8.35;6.07;;;;;;;34.54;32.44;99847.19;5109904;28;20047;-32
2022/06/14 11:09:58;;;;;;;9.77;5.70;;;;;;;33.39;32.69;99841.50;5091241;28;20027;-34
2022/06/14 11:12:39;;;;;;;8.98;6.22;;;;;;;33.28;31.33;99851.63;5091511;28;20028;-29
2022/06/14 11:15:25;;;;;;;12.30;6.15;;;;;;;33.68;31.87;99846.53;5109585;28;20505;-29
2022/06/14 11:18:35;;;;;;;7.93;5.40;;;;;;;34.55;29.54;99855.13;5090961;28;20031;-30
2022/06/14 11:21:42;;;;;;;7.25;5.60;;;;;;;34.48;33.75;99843.22;5106069;28;20041;-35
2022/06/14 11:24:37;;;;;;;7.90;5.38;;;;;;;34.38;31.52;99864.09;5090841;28;20131;-37
2022/06/14 11:27:57;;;;;;;36.88;5.90;;;;;;;32.94;33.22;99882.00;5109348;28;20031;-32
2022/06/14 11:30:43;;;;;;;7.57;4.75;;;;;;;31.62;35.05;99859.41;5029026;28;20566;-33
2022/06/14 11:33:11;;;;;;;9.95;5.05;;;;;;;31.36;37.01;99862.03;5086114;28;20118;-30
2022/06/14 11:35:51;;;;;;;9.20;4.78;;;;;;;30.90;38.85;99839.91;5090661;28;20028;-34
2022/06/14 11:38:57;;;;;;;7.90;5.13;;;;;;;29.96;40.50;99853.44;5090582;28;20052;-30
2022/06/14 11:41:25;;;;;;;10.35;5.13;;;;;;;29.80;41.70;99839.69;5083082;28;20152;-36
2022/06/14 11:44:09;;;;;;;9.73;5.55;;;;;;;29.89;42.15;99832.03;5090265;28;20035;-29
2022/06/14 11:46:56;;;;;;;10.68;5.40;;;;;;;29.89;43.24;99809.25;5090684;28;20092;-30
2022/06/14 11:49:48;;;;;;;10.02;5.43;;;;;;;29.49;44.32;99816.50;5108834;28;20036;-33
2022/06/14 11:52:38;;;;;;;12.85;6.53;;;;;;;29.02;44.97;99823.44;5090700;28;20027;-30
2022/06/14 11:55:17;;;;;;;28.77;11.02;;;;;;;28.24;46.04;99879.47;5109126;28;20035;-32
2022/06/14 11:57:48;;;;;;;10.82;5.82;;;;;;;27.37;47.62;99877.63;5108546;28;20455;-38
2022/06/14 12:00:36;;;;;;;9.65;4.47;;;;;;;26.61;48.45;99890.41;5090376;28;20035;-30
2022/06/14 12:03:12;;;;;;;;;;;;;;;25.97;49.89;99888.56;5090316;28;20051;-30
2022/06/14 12:05:50;;;;;;;10.53;4.40;;;;;;;25.49;51.90;99874.03;5090037;28;19940;-33
2022/06/14 12:08:45;;;;;;;86.93;14.10;;;;;;;24.98;53.37;99881.88;5090277;28;20122;-31
2022/06/14 12:11:13;;;;;;;8.77;5.72;;;;;;;23.89;56.17;99898.03;5108234;28;20036;-32
2022/06/14 12:14:08;;;;;;;10.07;5.78;;;;;;;23.82;57.70;99901.19;5108515;28;20065;-30
2022/06/14 12:16:43;;;;;;;10.07;5.50;;;;;;;23.78;55.41;99886.59;5090173;28;20177;-32
2022/06/14 12:19:09;;;;;;;9.38;6.03;;;;;;;23.83;55.05;99891.91;5089883;28;20031;-29
2022/06/14 12:21:46;;;;;;;9.45;5.70;;;;;;;23.85;55.41;99889.69;5108201;28;20046;-29
2022/06/14 12:24:19;;;;;;;7.97;5.30;;;;;;;23.96;56.57;99891.00;5108693;28;20054;-31
2022/06/14 12:26:58;;;;;;;9.82;5.63;;;;;;;23.95;55.93;99900.31;5089599;28;20024;-30
2022/06/14 12:29:32;;;;;;;9.48;6.00;;;;;;;24.16;56.22;99899.78;5108093;28;20545;-34
2022/06/14 12:32:12;;;;;;;12.90;9.75;;;;;;;24.29;55.80;99907.03;5108453;28;20398;-29
2022/06/14 12:34:50;;;;;;;8.38;6.65;;;;;;;24.48;56.21;99906.78;5108200;28;20082;-33